sensor_id;sensor_type;location;lat;lon;timestamp;P1;durP1;ratioP1;P2;durP2;ratioP2
34373;SDS011;20637;55.770;37.592;2024-03-06T00:00:57;2.83;;;1.08;;
34373;SDS011;20637;55.770;37.592;2024-03-06T00:03:23;1.38;;;0.95;;
34373;SDS011;20637;55.770;37.592;2024-03-06T00:05:49;2.25;;;0.80;;
34373;SDS011;20637;55.770;37.592;2024-03-06T00:08:14;3.33;;;0.98;;
34373;SDS011;20637;55.770;37.592;2024-03-06T00:10:41;2.10;;;1.10;;
34373;SDS011;20637;55.770;37.592;2024-03-06T00:13:07;1.98;;;1.00;;
34373;SDS011;20637;55.770;37.592;2024-03-06T00:15:33;3.17;;;1.10;;
34373;SDS011;20637;55.770;37.592;2024-03-06T00:17:59;2.22;;;1.00;;
34373;SDS011;20637;55.770;37.592;2024-03-06T00:20:25;1.98;;;0.98;;
34373;SDS011;20637;55.770;37.592;2024-03-06T00:22:51;2.60;;;1.00;;
34373;SDS011;20637;55.770;37.592;2024-03-06T00:25:17;1.67;;;0.90;;
34373;SDS011;20637;55.770;37.592;2024-03-06T00:27:42;2.33;;;0.80;;
34373;SDS011;20637;55.770;37.592;2024-03-06T00:30:08;3.67;;;1.20;;
34373;SDS011;20637;55.770;37.592;2024-03-06T00:32:34;1.85;;;0.90;;
34373;SDS011;20637;55.770;37.592;2024-03-06T00:35:00;2.20;;;0.80;;
34373;SDS011;20637;55.770;37.592;2024-03-06T00:37:25;1.38;;;0.77;;
34373;SDS011;20637;55.770;37.592;2024-03-06T00:39:51;2.22;;;1.02;;
34373;SDS011;20637;55.770;37.592;2024-03-06T00:42:17;2.72;;;1.30;;
34373;SDS011;20637;55.770;37.592;2024-03-06T00:44:43;2.60;;;1.10;;
34373;SDS011;20637;55.770;37.592;2024-03-06T00:47:08;2.47;;;1.00;;
34373;SDS011;20637;55.770;37.592;2024-03-06T00:49:34;1.20;;;0.75;;
34373;SDS011;20637;55.770;37.592;2024-03-06T00:52:00;1.73;;;1.00;;
34373;SDS011;20637;55.770;37.592;2024-03-06T00:54:25;2.15;;;1.10;;
34373;SDS011;20637;55.770;37.592;2024-03-06T00:56:51;2.17;;;1.00;;
34373;SDS011;20637;55.770;37.592;2024-03-06T00:59:17;1.83;;;1.10;;
34373;SDS011;20637;55.770;37.592;2024-03-06T01:01:42;2.35;;;0.80;;
34373;SDS011;20637;55.770;37.592;2024-03-06T01:04:08;1.90;;;0.90;;
34373;SDS011;20637;55.770;37.592;2024-03-06T01:06:34;2.17;;;0.93;;
34373;SDS011;20637;55.770;37.592;2024-03-06T01:08:59;3.50;;;1.20;;
34373;SDS011;20637;55.770;37.592;2024-03-06T01:11:25;3.20;;;1.05;;
34373;SDS011;20637;55.770;37.592;2024-03-06T01:13:51;3.65;;;0.90;;
34373;SDS011;20637;55.770;37.592;2024-03-06T01:16:17;3.53;;;1.35;;
34373;SDS011;20637;55.770;37.592;2024-03-06T01:18:43;2.67;;;1.05;;
34373;SDS011;20637;55.770;37.592;2024-03-06T01:21:09;2.08;;;1.02;;
34373;SDS011;20637;55.770;37.592;2024-03-06T01:23:35;2.65;;;1.25;;
34373;SDS011;20637;55.770;37.592;2024-03-06T01:26:01;1.77;;;0.98;;
34373;SDS011;20637;55.770;37.592;2024-03-06T01:28:26;2.75;;;1.10;;
34373;SDS011;20637;55.770;37.592;2024-03-06T01:30:52;2.42;;;0.93;;
34373;SDS011;20637;55.770;37.592;2024-03-06T01:33:18;1.52;;;0.90;;
34373;SDS011;20637;55.770;37.592;2024-03-06T01:35:43;3.13;;;1.17;;
34373;SDS011;20637;55.770;37.592;2024-03-06T01:38:09;2.20;;;1.02;;
34373;SDS011;20637;55.770;37.592;2024-03-06T01:40:35;3.25;;;1.25;;
34373;SDS011;20637;55.770;37.592;2024-03-06T01:43:01;4.10;;;1.23;;
34373;SDS011;20637;55.770;37.592;2024-03-06T01:45:27;3.72;;;1.20;;
34373;SDS011;20637;55.770;37.592;2024-03-06T01:47:53;2.13;;;1.00;;
34373;SDS011;20637;55.770;37.592;2024-03-06T01:50:19;2.50;;;1.20;;
34373;SDS011;20637;55.770;37.592;2024-03-06T01:52:44;2.58;;;1.05;;
34373;SDS011;20637;55.770;37.592;2024-03-06T01:55:12;4.50;;;1.40;;
34373;SDS011;20637;55.770;37.592;2024-03-06T01:57:39;1.80;;;1.08;;
34373;SDS011;20637;55.770;37.592;2024-03-06T02:00:06;2.25;;;1.10;;
34373;SDS011;20637;55.770;37.592;2024-03-06T02:02:40;3.30;;;1.30;;
34373;SDS011;20637;55.770;37.592;2024-03-06T02:05:07;2.88;;;1.38;;
34373;SDS011;20637;55.770;37.592;2024-03-06T02:07:33;2.13;;;1.20;;
34373;SDS011;20637;55.770;37.592;2024-03-06T02:09:59;2.42;;;1.50;;
34373;SDS011;20637;55.770;37.592;2024-03-06T02:12:24;3.03;;;1.20;;
34373;SDS011;20637;55.770;37.592;2024-03-06T02:14:50;2.85;;;1.20;;
34373;SDS011;20637;55.770;37.592;2024-03-06T02:17:16;1.73;;;1.00;;
34373;SDS011;20637;55.770;37.592;2024-03-06T02:19:42;2.22;;;1.10;;
34373;SDS011;20637;55.770;37.592;2024-03-06T02:22:10;3.78;;;1.40;;
34373;SDS011;20637;55.770;37.592;2024-03-06T02:24:37;2.53;;;1.60;;
34373;SDS011;20637;55.770;37.592;2024-03-06T02:27:08;2.45;;;1.15;;
34373;SDS011;20637;55.770;37.592;2024-03-06T02:29:33;3.88;;;1.48;;
34373;SDS011;20637;55.770;37.592;2024-03-06T02:31:59;3.83;;;1.67;;
34373;SDS011;20637;55.770;37.592;2024-03-06T02:34:28;5.47;;;1.60;;
34373;SDS011;20637;55.770;37.592;2024-03-06T02:36:56;3.13;;;1.50;;
34373;SDS011;20637;55.770;37.592;2024-03-06T02:39:22;2.65;;;1.38;;
34373;SDS011;20637;55.770;37.592;2024-03-06T02:41:48;3.42;;;1.50;;
34373;SDS011;20637;55.770;37.592;2024-03-06T02:44:14;4.90;;;1.85;;
34373;SDS011;20637;55.770;37.592;2024-03-06T02:46:46;1.13;;;1.00;;
34373;SDS011;20637;55.770;37.592;2024-03-06T02:49:13;3.28;;;1.50;;
34373;SDS011;20637;55.770;37.592;2024-03-06T02:51:40;4.22;;;1.45;;
34373;SDS011;20637;55.770;37.592;2024-03-06T02:54:05;3.22;;;1.77;;
34373;SDS011;20637;55.770;37.592;2024-03-06T02:56:31;4.22;;;1.60;;
34373;SDS011;20637;55.770;37.592;2024-03-06T02:58:56;3.67;;;1.60;;
34373;SDS011;20637;55.770;37.592;2024-03-06T03:01:22;3.42;;;1.75;;
34373;SDS011;20637;55.770;37.592;2024-03-06T03:03:49;2.38;;;1.73;;
34373;SDS011;20637;55.770;37.592;2024-03-06T03:06:16;3.90;;;1.70;;
34373;SDS011;20637;55.770;37.592;2024-03-06T03:08:42;4.90;;;1.50;;
34373;SDS011;20637;55.770;37.592;2024-03-06T03:11:07;3.92;;;1.58;;
34373;SDS011;20637;55.770;37.592;2024-03-06T03:13:33;2.63;;;1.65;;
34373;SDS011;20637;55.770;37.592;2024-03-06T03:15:59;3.03;;;1.48;;
34373;SDS011;20637;55.770;37.592;2024-03-06T03:18:24;3.33;;;1.80;;
34373;SDS011;20637;55.770;37.592;2024-03-06T03:20:50;2.53;;;1.55;;
34373;SDS011;20637;55.770;37.592;2024-03-06T03:23:16;2.58;;;1.30;;
34373;SDS011;20637;55.770;37.592;2024-03-06T03:25:50;3.33;;;1.40;;
34373;SDS011;20637;55.770;37.592;2024-03-06T03:28:16;4.50;;;1.77;;
34373;SDS011;20637;55.770;37.592;2024-03-06T03:30:44;4.32;;;1.40;;
34373;SDS011;20637;55.770;37.592;2024-03-06T03:33:10;2.05;;;1.08;;
34373;SDS011;20637;55.770;37.592;2024-03-06T03:35:36;3.33;;;1.42;;
34373;SDS011;20637;55.770;37.592;2024-03-06T03:38:02;2.78;;;1.30;;
34373;SDS011;20637;55.770;37.592;2024-03-06T03:40:28;5.63;;;1.83;;
34373;SDS011;20637;55.770;37.592;2024-03-06T03:42:54;5.03;;;2.30;;
34373;SDS011;20637;55.770;37.592;2024-03-06T03:45:19;5.75;;;2.30;;
34373;SDS011;20637;55.770;37.592;2024-03-06T03:47:45;3.50;;;1.70;;
34373;SDS011;20637;55.770;37.592;2024-03-06T03:50:11;6.68;;;1.52;;
34373;SDS011;20637;55.770;37.592;2024-03-06T03:52:37;2.90;;;1.40;;
34373;SDS011;20637;55.770;37.592;2024-03-06T03:55:07;4.28;;;1.55;;
34373;SDS011;20637;55.770;37.592;2024-03-06T03:57:34;4.50;;;1.25;;
34373;SDS011;20637;55.770;37.592;2024-03-06T03:59:59;2.45;;;1.75;;
34373;SDS011;20637;55.770;37.592;2024-03-06T04:02:25;4.38;;;1.60;;
34373;SDS011;20637;55.770;37.592;2024-03-06T04:04:50;4.50;;;1.55;;
34373;SDS011;20637;55.770;37.592;2024-03-06T04:07:16;3.80;;;1.13;;
34373;SDS011;20637;55.770;37.592;2024-03-06T04:09:44;2.92;;;1.30;;
34373;SDS011;20637;55.770;37.592;2024-03-06T04:12:09;2.60;;;1.38;;
34373;SDS011;20637;55.770;37.592;2024-03-06T04:14:35;5.35;;;1.58;;
34373;SDS011;20637;55.770;37.592;2024-03-06T04:17:01;2.25;;;1.40;;
34373;SDS011;20637;55.770;37.592;2024-03-06T04:19:29;4.05;;;1.48;;
34373;SDS011;20637;55.770;37.592;2024-03-06T04:21:54;4.00;;;1.50;;
34373;SDS011;20637;55.770;37.592;2024-03-06T04:24:20;3.03;;;1.42;;
34373;SDS011;20637;55.770;37.592;2024-03-06T04:26:46;3.08;;;1.58;;
34373;SDS011;20637;55.770;37.592;2024-03-06T04:29:11;4.40;;;1.40;;
34373;SDS011;20637;55.770;37.592;2024-03-06T04:31:37;3.95;;;1.48;;
34373;SDS011;20637;55.770;37.592;2024-03-06T04:34:03;3.70;;;1.50;;
34373;SDS011;20637;55.770;37.592;2024-03-06T04:36:28;4.55;;;1.90;;
34373;SDS011;20637;55.770;37.592;2024-03-06T04:38:54;4.55;;;1.92;;
34373;SDS011;20637;55.770;37.592;2024-03-06T04:41:20;5.60;;;2.10;;
34373;SDS011;20637;55.770;37.592;2024-03-06T04:43:45;5.50;;;1.90;;
34373;SDS011;20637;55.770;37.592;2024-03-06T04:46:14;5.00;;;2.35;;
34373;SDS011;20637;55.770;37.592;2024-03-06T04:48:40;3.58;;;1.50;;
34373;SDS011;20637;55.770;37.592;2024-03-06T04:51:06;5.45;;;2.05;;
34373;SDS011;20637;55.770;37.592;2024-03-06T04:53:31;3.47;;;1.60;;
34373;SDS011;20637;55.770;37.592;2024-03-06T04:55:57;6.75;;;1.90;;
34373;SDS011;20637;55.770;37.592;2024-03-06T04:58:22;3.55;;;1.80;;
34373;SDS011;20637;55.770;37.592;2024-03-06T05:00:48;4.32;;;1.88;;
34373;SDS011;20637;55.770;37.592;2024-03-06T05:03:14;4.28;;;1.90;;
34373;SDS011;20637;55.770;37.592;2024-03-06T05:05:40;4.90;;;2.22;;
34373;SDS011;20637;55.770;37.592;2024-03-06T05:08:06;7.07;;;2.25;;
34373;SDS011;20637;55.770;37.592;2024-03-06T05:10:32;5.43;;;2.20;;
34373;SDS011;20637;55.770;37.592;2024-03-06T05:12:58;7.15;;;2.05;;
34373;SDS011;20637;55.770;37.592;2024-03-06T05:15:23;6.60;;;2.35;;
34373;SDS011;20637;55.770;37.592;2024-03-06T05:17:49;5.75;;;2.08;;
34373;SDS011;20637;55.770;37.592;2024-03-06T05:20:15;3.97;;;2.10;;
34373;SDS011;20637;55.770;37.592;2024-03-06T05:22:41;4.75;;;2.10;;
34373;SDS011;20637;55.770;37.592;2024-03-06T05:25:07;6.05;;;1.98;;
34373;SDS011;20637;55.770;37.592;2024-03-06T05:27:34;5.03;;;1.90;;
34373;SDS011;20637;55.770;37.592;2024-03-06T05:29:59;6.10;;;2.28;;
34373;SDS011;20637;55.770;37.592;2024-03-06T05:32:25;7.93;;;2.67;;
34373;SDS011;20637;55.770;37.592;2024-03-06T05:34:50;5.68;;;2.05;;
34373;SDS011;20637;55.770;37.592;2024-03-06T05:37:16;4.07;;;2.15;;
34373;SDS011;20637;55.770;37.592;2024-03-06T05:39:42;6.15;;;1.70;;
34373;SDS011;20637;55.770;37.592;2024-03-06T05:42:08;3.25;;;1.85;;
34373;SDS011;20637;55.770;37.592;2024-03-06T05:44:34;6.13;;;2.00;;
34373;SDS011;20637;55.770;37.592;2024-03-06T05:47:00;4.45;;;2.00;;
34373;SDS011;20637;55.770;37.592;2024-03-06T05:49:28;4.68;;;1.92;;
34373;SDS011;20637;55.770;37.592;2024-03-06T05:51:54;5.28;;;2.30;;
34373;SDS011;20637;55.770;37.592;2024-03-06T05:54:20;3.30;;;2.03;;
34373;SDS011;20637;55.770;37.592;2024-03-06T05:56:50;5.70;;;2.05;;
34373;SDS011;20637;55.770;37.592;2024-03-06T05:59:17;4.05;;;1.90;;
34373;SDS011;20637;55.770;37.592;2024-03-06T06:01:44;3.70;;;2.20;;
34373;SDS011;20637;55.770;37.592;2024-03-06T06:04:11;5.38;;;2.20;;
34373;SDS011;20637;55.770;37.592;2024-03-06T06:06:39;7.88;;;2.38;;
34373;SDS011;20637;55.770;37.592;2024-03-06T06:09:05;4.47;;;1.88;;
34373;SDS011;20637;55.770;37.592;2024-03-06T06:11:31;3.45;;;2.13;;
34373;SDS011;20637;55.770;37.592;2024-03-06T06:13:59;4.72;;;2.20;;
34373;SDS011;20637;55.770;37.592;2024-03-06T06:16:26;4.28;;;2.30;;
34373;SDS011;20637;55.770;37.592;2024-03-06T06:18:52;5.28;;;2.40;;
34373;SDS011;20637;55.770;37.592;2024-03-06T06:21:18;4.22;;;2.60;;
34373;SDS011;20637;55.770;37.592;2024-03-06T06:23:44;9.57;;;2.40;;
34373;SDS011;20637;55.770;37.592;2024-03-06T06:26:10;6.10;;;2.88;;
34373;SDS011;20637;55.770;37.592;2024-03-06T06:28:36;5.60;;;2.28;;
34373;SDS011;20637;55.770;37.592;2024-03-06T06:31:03;6.53;;;2.67;;
34373;SDS011;20637;55.770;37.592;2024-03-06T06:33:30;8.60;;;3.28;;
34373;SDS011;20637;55.770;37.592;2024-03-06T06:35:56;5.22;;;2.47;;
34373;SDS011;20637;55.770;37.592;2024-03-06T06:38:21;6.30;;;2.72;;
34373;SDS011;20637;55.770;37.592;2024-03-06T06:40:47;4.10;;;2.30;;
34373;SDS011;20637;55.770;37.592;2024-03-06T06:43:13;5.50;;;2.53;;
34373;SDS011;20637;55.770;37.592;2024-03-06T06:45:41;7.60;;;3.00;;
34373;SDS011;20637;55.770;37.592;2024-03-06T06:48:07;7.25;;;2.20;;
34373;SDS011;20637;55.770;37.592;2024-03-06T06:50:34;8.80;;;2.70;;
34373;SDS011;20637;55.770;37.592;2024-03-06T06:53:00;8.05;;;2.33;;
34373;SDS011;20637;55.770;37.592;2024-03-06T06:55:26;7.82;;;2.28;;
34373;SDS011;20637;55.770;37.592;2024-03-06T06:57:52;4.72;;;2.38;;
34373;SDS011;20637;55.770;37.592;2024-03-06T07:00:19;5.43;;;2.42;;
34373;SDS011;20637;55.770;37.592;2024-03-06T07:02:47;7.38;;;2.50;;
34373;SDS011;20637;55.770;37.592;2024-03-06T07:05:13;9.02;;;2.65;;
34373;SDS011;20637;55.770;37.592;2024-03-06T07:07:40;10.27;;;3.63;;
34373;SDS011;20637;55.770;37.592;2024-03-06T07:10:06;9.10;;;2.63;;
34373;SDS011;20637;55.770;37.592;2024-03-06T07:12:34;8.43;;;2.60;;
34373;SDS011;20637;55.770;37.592;2024-03-06T07:15:00;8.18;;;4.13;;
34373;SDS011;20637;55.770;37.592;2024-03-06T07:17:26;11.77;;;3.00;;
34373;SDS011;20637;55.770;37.592;2024-03-06T07:19:51;8.15;;;3.05;;
34373;SDS011;20637;55.770;37.592;2024-03-06T07:22:18;8.13;;;2.63;;
34373;SDS011;20637;55.770;37.592;2024-03-06T07:24:44;9.30;;;2.80;;
34373;SDS011;20637;55.770;37.592;2024-03-06T07:27:10;5.43;;;2.20;;
34373;SDS011;20637;55.770;37.592;2024-03-06T07:29:36;4.82;;;2.17;;
34373;SDS011;20637;55.770;37.592;2024-03-06T07:32:02;5.15;;;2.65;;
34373;SDS011;20637;55.770;37.592;2024-03-06T07:34:30;4.50;;;2.33;;
34373;SDS011;20637;55.770;37.592;2024-03-06T07:36:56;7.32;;;2.40;;
34373;SDS011;20637;55.770;37.592;2024-03-06T07:39:24;7.28;;;2.17;;
34373;SDS011;20637;55.770;37.592;2024-03-06T07:41:51;6.22;;;2.30;;
34373;SDS011;20637;55.770;37.592;2024-03-06T07:44:16;5.75;;;2.78;;
34373;SDS011;20637;55.770;37.592;2024-03-06T07:46:42;4.03;;;1.98;;
34373;SDS011;20637;55.770;37.592;2024-03-06T07:49:08;11.55;;;2.63;;
34373;SDS011;20637;55.770;37.592;2024-03-06T07:51:33;8.10;;;2.88;;
34373;SDS011;20637;55.770;37.592;2024-03-06T07:54:01;12.35;;;3.28;;
34373;SDS011;20637;55.770;37.592;2024-03-06T07:56:29;8.15;;;2.42;;
34373;SDS011;20637;55.770;37.592;2024-03-06T07:58:55;9.32;;;2.83;;
34373;SDS011;20637;55.770;37.592;2024-03-06T08:01:22;8.52;;;2.78;;
34373;SDS011;20637;55.770;37.592;2024-03-06T08:03:49;9.98;;;2.55;;
34373;SDS011;20637;55.770;37.592;2024-03-06T08:06:15;6.50;;;2.70;;
34373;SDS011;20637;55.770;37.592;2024-03-06T08:08:41;7.63;;;2.55;;
34373;SDS011;20637;55.770;37.592;2024-03-06T08:11:10;7.05;;;2.13;;
34373;SDS011;20637;55.770;37.592;2024-03-06T08:13:38;5.28;;;2.90;;
34373;SDS011;20637;55.770;37.592;2024-03-06T08:16:04;4.53;;;1.88;;
34373;SDS011;20637;55.770;37.592;2024-03-06T08:18:31;4.07;;;1.63;;
34373;SDS011;20637;55.770;37.592;2024-03-06T08:20:58;3.90;;;1.98;;
34373;SDS011;20637;55.770;37.592;2024-03-06T08:23:24;10.88;;;2.42;;
34373;SDS011;20637;55.770;37.592;2024-03-06T08:25:51;4.97;;;1.85;;
34373;SDS011;20637;55.770;37.592;2024-03-06T08:28:18;7.10;;;2.00;;
34373;SDS011;20637;55.770;37.592;2024-03-06T08:30:44;6.82;;;2.25;;
34373;SDS011;20637;55.770;37.592;2024-03-06T08:33:10;4.93;;;1.60;;
34373;SDS011;20637;55.770;37.592;2024-03-06T08:35:36;2.80;;;1.20;;
34373;SDS011;20637;55.770;37.592;2024-03-06T08:38:02;5.00;;;1.90;;
34373;SDS011;20637;55.770;37.592;2024-03-06T08:40:29;3.92;;;1.80;;
34373;SDS011;20637;55.770;37.592;2024-03-06T08:42:55;4.20;;;1.70;;
34373;SDS011;20637;55.770;37.592;2024-03-06T08:45:21;4.97;;;1.67;;
34373;SDS011;20637;55.770;37.592;2024-03-06T08:47:48;7.50;;;1.70;;
34373;SDS011;20637;55.770;37.592;2024-03-06T08:50:14;4.25;;;1.80;;
34373;SDS011;20637;55.770;37.592;2024-03-06T08:52:40;5.88;;;1.90;;
34373;SDS011;20637;55.770;37.592;2024-03-06T08:55:06;3.63;;;1.77;;
34373;SDS011;20637;55.770;37.592;2024-03-06T08:57:33;5.10;;;1.70;;
34373;SDS011;20637;55.770;37.592;2024-03-06T08:59:59;5.25;;;1.88;;
34373;SDS011;20637;55.770;37.592;2024-03-06T09:02:25;4.30;;;1.83;;
34373;SDS011;20637;55.770;37.592;2024-03-06T09:04:51;8.30;;;2.10;;
34373;SDS011;20637;55.770;37.592;2024-03-06T09:07:17;3.50;;;1.85;;
34373;SDS011;20637;55.770;37.592;2024-03-06T09:09:43;4.07;;;1.45;;
34373;SDS011;20637;55.770;37.592;2024-03-06T09:12:10;3.65;;;1.75;;
34373;SDS011;20637;55.770;37.592;2024-03-06T09:14:37;4.70;;;2.08;;
34373;SDS011;20637;55.770;37.592;2024-03-06T09:17:03;2.45;;;2.15;;
34373;SDS011;20637;55.770;37.592;2024-03-06T09:19:30;3.22;;;1.70;;
34373;SDS011;20637;55.770;37.592;2024-03-06T09:21:57;5.35;;;2.20;;
34373;SDS011;20637;55.770;37.592;2024-03-06T09:24:23;7.85;;;2.03;;
34373;SDS011;20637;55.770;37.592;2024-03-06T09:26:50;9.20;;;2.22;;
34373;SDS011;20637;55.770;37.592;2024-03-06T09:29:18;8.52;;;1.98;;
34373;SDS011;20637;55.770;37.592;2024-03-06T09:31:44;5.15;;;1.88;;
34373;SDS011;20637;55.770;37.592;2024-03-06T09:34:10;5.85;;;2.00;;
34373;SDS011;20637;55.770;37.592;2024-03-06T09:36:40;4.25;;;1.92;;
34373;SDS011;20637;55.770;37.592;2024-03-06T09:39:13;7.43;;;2.50;;
34373;SDS011;20637;55.770;37.592;2024-03-06T09:41:43;4.30;;;1.90;;
34373;SDS011;20637;55.770;37.592;2024-03-06T09:44:10;6.28;;;2.30;;
34373;SDS011;20637;55.770;37.592;2024-03-06T09:46:36;5.30;;;2.10;;
34373;SDS011;20637;55.770;37.592;2024-03-06T09:49:02;5.35;;;2.30;;
34373;SDS011;20637;55.770;37.592;2024-03-06T09:51:28;6.47;;;2.97;;
34373;SDS011;20637;55.770;37.592;2024-03-06T09:53:54;4.55;;;2.17;;
34373;SDS011;20637;55.770;37.592;2024-03-06T09:56:20;3.70;;;2.50;;
34373;SDS011;20637;55.770;37.592;2024-03-06T09:58:46;5.47;;;2.70;;
34373;SDS011;20637;55.770;37.592;2024-03-06T10:01:15;4.68;;;2.10;;
34373;SDS011;20637;55.770;37.592;2024-03-06T10:03:42;5.03;;;2.20;;
34373;SDS011;20637;55.770;37.592;2024-03-06T10:06:08;5.25;;;2.17;;
34373;SDS011;20637;55.770;37.592;2024-03-06T10:08:35;5.38;;;2.42;;
34373;SDS011;20637;55.770;37.592;2024-03-06T10:11:03;3.70;;;2.10;;
34373;SDS011;20637;55.770;37.592;2024-03-06T10:13:29;4.05;;;2.20;;
34373;SDS011;20637;55.770;37.592;2024-03-06T10:18:22;3.58;;;1.90;;
34373;SDS011;20637;55.770;37.592;2024-03-06T10:20:52;4.95;;;2.10;;
34373;SDS011;20637;55.770;37.592;2024-03-06T10:23:19;6.03;;;1.98;;
34373;SDS011;20637;55.770;37.592;2024-03-06T10:25:45;7.53;;;3.08;;
34373;SDS011;20637;55.770;37.592;2024-03-06T10:28:17;8.32;;;2.00;;
34373;SDS011;20637;55.770;37.592;2024-03-06T10:30:44;6.65;;;2.00;;
34373;SDS011;20637;55.770;37.592;2024-03-06T10:33:11;2.65;;;1.58;;
34373;SDS011;20637;55.770;37.592;2024-03-06T10:35:42;4.50;;;2.13;;
34373;SDS011;20637;55.770;37.592;2024-03-06T10:38:10;2.45;;;1.52;;
34373;SDS011;20637;55.770;37.592;2024-03-06T10:40:42;4.78;;;1.70;;
34373;SDS011;20637;55.770;37.592;2024-03-06T10:43:09;7.13;;;2.20;;
34373;SDS011;20637;55.770;37.592;2024-03-06T10:45:46;4.43;;;1.90;;
34373;SDS011;20637;55.770;37.592;2024-03-06T10:48:17;3.15;;;1.73;;
34373;SDS011;20637;55.770;37.592;2024-03-06T10:50:44;5.70;;;1.90;;
34373;SDS011;20637;55.770;37.592;2024-03-06T10:53:12;4.75;;;2.58;;
34373;SDS011;20637;55.770;37.592;2024-03-06T10:55:39;5.70;;;1.95;;
34373;SDS011;20637;55.770;37.592;2024-03-06T10:58:05;4.32;;;2.30;;
34373;SDS011;20637;55.770;37.592;2024-03-06T11:00:39;3.15;;;2.25;;
34373;SDS011;20637;55.770;37.592;2024-03-06T11:03:06;7.00;;;2.65;;
34373;SDS011;20637;55.770;37.592;2024-03-06T11:05:34;4.43;;;2.10;;
34373;SDS011;20637;55.770;37.592;2024-03-06T11:08:02;9.05;;;3.00;;
34373;SDS011;20637;55.770;37.592;2024-03-06T11:10:32;6.43;;;2.20;;
34373;SDS011;20637;55.770;37.592;2024-03-06T11:12:58;4.67;;;2.03;;
34373;SDS011;20637;55.770;37.592;2024-03-06T11:15:24;6.68;;;2.60;;
34373;SDS011;20637;55.770;37.592;2024-03-06T11:17:50;6.88;;;3.30;;
34373;SDS011;20637;55.770;37.592;2024-03-06T11:20:17;4.45;;;2.17;;
34373;SDS011;20637;55.770;37.592;2024-03-06T11:28:24;4.50;;;2.03;;
34373;SDS011;20637;55.770;37.592;2024-03-06T11:30:56;13.40;;;3.38;;
34373;SDS011;20637;55.770;37.592;2024-03-06T11:38:57;7.15;;;2.58;;
34373;SDS011;20637;55.770;37.592;2024-03-06T11:41:29;8.02;;;2.65;;
34373;SDS011;20637;55.770;37.592;2024-03-06T11:43:57;3.78;;;2.08;;
34373;SDS011;20637;55.770;37.592;2024-03-06T11:51:50;6.72;;;2.03;;
34373;SDS011;20637;55.770;37.592;2024-03-06T11:54:17;4.80;;;1.98;;
34373;SDS011;20637;55.770;37.592;2024-03-06T11:56:50;7.55;;;2.15;;
34373;SDS011;20637;55.770;37.592;2024-03-06T11:59:25;6.43;;;1.70;;
34373;SDS011;20637;55.770;37.592;2024-03-06T12:01:53;3.78;;;1.88;;
34373;SDS011;20637;55.770;37.592;2024-03-06T12:04:20;3.97;;;1.30;;
34373;SDS011;20637;55.770;37.592;2024-03-06T12:06:46;3.72;;;1.60;;
34373;SDS011;20637;55.770;37.592;2024-03-06T12:09:13;4.32;;;1.30;;
34373;SDS011;20637;55.770;37.592;2024-03-06T12:11:40;3.40;;;1.73;;
34373;SDS011;20637;55.770;37.592;2024-03-06T12:14:12;3.10;;;1.50;;
34373;SDS011;20637;55.770;37.592;2024-03-06T12:16:43;3.58;;;1.30;;
34373;SDS011;20637;55.770;37.592;2024-03-06T12:19:10;3.95;;;1.30;;
34373;SDS011;20637;55.770;37.592;2024-03-06T12:21:36;4.80;;;1.60;;
34373;SDS011;20637;55.770;37.592;2024-03-06T12:24:09;9.02;;;2.00;;
34373;SDS011;20637;55.770;37.592;2024-03-06T12:26:36;5.45;;;2.22;;
34373;SDS011;20637;55.770;37.592;2024-03-06T12:29:08;7.22;;;2.38;;
34373;SDS011;20637;55.770;37.592;2024-03-06T12:31:37;2.83;;;1.80;;
34373;SDS011;20637;55.770;37.592;2024-03-06T12:34:07;3.88;;;1.83;;
34373;SDS011;20637;55.770;37.592;2024-03-06T12:36:34;5.40;;;2.05;;
34373;SDS011;20637;55.770;37.592;2024-03-06T12:39:00;5.85;;;2.10;;
34373;SDS011;20637;55.770;37.592;2024-03-06T12:41:28;6.63;;;2.15;;
34373;SDS011;20637;55.770;37.592;2024-03-06T12:43:54;7.07;;;2.83;;
34373;SDS011;20637;55.770;37.592;2024-03-06T12:46:20;4.88;;;1.83;;
34373;SDS011;20637;55.770;37.592;2024-03-06T12:48:45;3.47;;;2.13;;
34373;SDS011;20637;55.770;37.592;2024-03-06T12:51:11;5.00;;;2.00;;
34373;SDS011;20637;55.770;37.592;2024-03-06T12:53:37;6.43;;;2.10;;
34373;SDS011;20637;55.770;37.592;2024-03-06T12:56:03;7.28;;;1.88;;
34373;SDS011;20637;55.770;37.592;2024-03-06T12:58:29;10.48;;;3.30;;
34373;SDS011;20637;55.770;37.592;2024-03-06T13:01:00;10.55;;;2.63;;
34373;SDS011;20637;55.770;37.592;2024-03-06T13:03:27;5.18;;;1.85;;
34373;SDS011;20637;55.770;37.592;2024-03-06T13:05:53;2.85;;;2.00;;
34373;SDS011;20637;55.770;37.592;2024-03-06T13:08:19;4.53;;;2.40;;
34373;SDS011;20637;55.770;37.592;2024-03-06T13:10:44;6.07;;;2.17;;
34373;SDS011;20637;55.770;37.592;2024-03-06T13:13:10;15.40;;;2.75;;
34373;SDS011;20637;55.770;37.592;2024-03-06T13:15:36;8.98;;;2.90;;
34373;SDS011;20637;55.770;37.592;2024-03-06T13:18:05;3.55;;;2.05;;
34373;SDS011;20637;55.770;37.592;2024-03-06T13:20:31;5.97;;;2.50;;
34373;SDS011;20637;55.770;37.592;2024-03-06T13:22:58;5.07;;;2.20;;
34373;SDS011;20637;55.770;37.592;2024-03-06T13:25:24;6.25;;;2.42;;
34373;SDS011;20637;55.770;37.592;2024-03-06T13:27:50;8.02;;;2.58;;
34373;SDS011;20637;55.770;37.592;2024-03-06T13:30:17;5.70;;;1.88;;
34373;SDS011;20637;55.770;37.592;2024-03-06T13:32:44;5.25;;;1.90;;
34373;SDS011;20637;55.770;37.592;2024-03-06T13:35:12;10.48;;;2.42;;
34373;SDS011;20637;55.770;37.592;2024-03-06T13:37:42;9.27;;;2.28;;
34373;SDS011;20637;55.770;37.592;2024-03-06T13:40:09;4.18;;;1.50;;
34373;SDS011;20637;55.770;37.592;2024-03-06T13:42:36;3.83;;;2.25;;
34373;SDS011;20637;55.770;37.592;2024-03-06T13:45:02;6.22;;;2.60;;
34373;SDS011;20637;55.770;37.592;2024-03-06T13:47:30;6.95;;;2.50;;
34373;SDS011;20637;55.770;37.592;2024-03-06T13:49:56;4.93;;;2.10;;
34373;SDS011;20637;55.770;37.592;2024-03-06T13:52:22;3.58;;;1.60;;
34373;SDS011;20637;55.770;37.592;2024-03-06T13:54:49;6.72;;;1.80;;
34373;SDS011;20637;55.770;37.592;2024-03-06T13:57:15;3.92;;;1.88;;
34373;SDS011;20637;55.770;37.592;2024-03-06T13:59:41;4.55;;;2.10;;
34373;SDS011;20637;55.770;37.592;2024-03-06T14:02:07;6.40;;;1.95;;
34373;SDS011;20637;55.770;37.592;2024-03-06T14:04:33;6.18;;;2.00;;
34373;SDS011;20637;55.770;37.592;2024-03-06T14:06:59;3.72;;;1.52;;
34373;SDS011;20637;55.770;37.592;2024-03-06T14:09:25;2.63;;;1.38;;
34373;SDS011;20637;55.770;37.592;2024-03-06T14:11:52;3.13;;;2.17;;
34373;SDS011;20637;55.770;37.592;2024-03-06T14:14:18;5.47;;;1.40;;
34373;SDS011;20637;55.770;37.592;2024-03-06T14:16:44;4.05;;;1.30;;
34373;SDS011;20637;55.770;37.592;2024-03-06T14:19:10;3.53;;;1.70;;
34373;SDS011;20637;55.770;37.592;2024-03-06T14:21:37;6.60;;;1.63;;
34373;SDS011;20637;55.770;37.592;2024-03-06T14:24:03;5.88;;;1.73;;
34373;SDS011;20637;55.770;37.592;2024-03-06T14:26:32;2.78;;;1.27;;
34373;SDS011;20637;55.770;37.592;2024-03-06T14:28:58;3.08;;;1.10;;
34373;SDS011;20637;55.770;37.592;2024-03-06T14:31:24;3.58;;;1.08;;
34373;SDS011;20637;55.770;37.592;2024-03-06T14:33:50;3.97;;;1.30;;
34373;SDS011;20637;55.770;37.592;2024-03-06T14:36:16;4.68;;;1.67;;
34373;SDS011;20637;55.770;37.592;2024-03-06T14:38:43;4.85;;;2.00;;
34373;SDS011;20637;55.770;37.592;2024-03-06T14:41:11;4.55;;;1.52;;
34373;SDS011;20637;55.770;37.592;2024-03-06T14:43:37;7.10;;;1.95;;
34373;SDS011;20637;55.770;37.592;2024-03-06T14:46:05;3.85;;;1.13;;
34373;SDS011;20637;55.770;37.592;2024-03-06T14:48:32;7.93;;;1.65;;